Time;durP1;ratioP1;P1;durP2;ratioP2;P2;SDS_P1;SDS_P2;PMS_P1;PMS_P2;Temp;Humidity;BMP_temperature;BMP_pressure;BME280_temperature;BME280_humidity;BME280_pressure;Samples;Min_cycle;Max_cycle;Signal;HPM_P1;HPM_P2
2022/08/16 00:00:15;;;;;;;;;;;23.20;95.00;23.50;98831.00;;;;347157;28;86491;-92
2022/08/16 00:00:33;;;;;;;;;;;23.30;94.90;23.60;98828.00;;;;347316;28;83483;-93
2022/08/16 00:00:49;;;;;;;;;;;23.30;94.90;23.60;98828.00;;;;344753;28;85974;-92
2022/08/16 00:01:02;;;;;;;;;;;23.30;95.10;23.60;98840.00;;;;347397;28;83724;-92
2022/08/16 00:01:17;;;;;;;;;;;23.30;94.90;23.50;98832.00;;;;348649;27;85723;-92
2022/08/16 00:01:30;;;;;;;;;;;23.40;94.90;23.40;98833.00;;;;346188;28;83390;-92
2022/08/16 00:01:46;;;;;;;;;;;23.30;95.10;23.40;98835.00;;;;344625;28;88264;-92
2022/08/16 00:02:00;;;;;;;;;;;23.30;95.00;23.30;98831.00;;;;346084;28;83523;-92
2022/08/16 00:02:23;;;;;;;;;;;23.30;94.90;23.30;98836.00;;;;343256;28;87702;-92
2022/08/16 00:02:35;;;;;;;;;;;23.30;95.00;23.20;98837.00;;;;346143;28;83271;-92
2022/08/16 00:02:47;;;;;;;;;;;23.30;95.10;23.30;98829.00;;;;348623;27;86179;-92
2022/08/16 00:02:59;;;;;;;;;;;23.20;95.00;23.20;98835.00;;;;347537;28;82594;-92
2022/08/16 00:03:11;;;;;;;;;;;23.30;95.10;23.20;98833.00;;;;347263;27;87390;-92
2022/08/16 00:03:25;;;;;;;;;;;23.30;95.20;23.40;98826.00;;;;349097;27;83363;-92
2022/08/16 00:03:37;;;;;;;;;;;23.30;95.10;23.20;98832.00;;;;350247;27;87190;-92
2022/08/16 00:03:52;;;;;;;;;;;23.30;95.20;23.40;98836.00;;;;347451;28;83308;-92
2022/08/16 00:04:04;;;;;;;;;;;23.30;95.00;23.20;98831.00;;;;348802;27;87441;-92
2022/08/16 00:04:16;;;;;;;;;;;23.30;95.10;23.30;98833.00;;;;347540;28;82466;-92
2022/08/16 00:04:28;;;;;;;;;;;23.30;95.20;23.30;98837.00;;;;347544;28;83437;-92
2022/08/16 00:04:40;;;;;;;;;;;23.30;95.10;23.40;98834.00;;;;346141;28;83231;-92
2022/08/16 00:04:53;;;;;;;;;;;23.30;95.00;23.30;98833.00;;;;346040;28;86809;-92
2022/08/16 00:05:10;;;;;;;;;;;23.30;95.00;23.30;98838.00;;;;346207;28;82544;-92
2022/08/16 00:05:23;;;;;;;;;;;23.30;95.00;23.30;98829.00;;;;348873;27;87239;-92
2022/08/16 00:05:35;;;;;;;;;;;23.30;95.00;23.30;98833.00;;;;347526;28;83442;-92
2022/08/16 00:05:59;;;;;;;;;;;23.30;95.00;23.30;98832.00;;;;348657;27;85419;-93
2022/08/16 00:06:13;;;;;;;;;;;23.30;95.10;23.30;98830.00;;;;347475;28;83480;-92
2022/08/16 00:06:26;;;;;;;;;;;23.30;95.20;23.30;98832.00;;;;347434;28;86054;-92
2022/08/16 00:06:37;;;;;;;;;;;23.20;95.10;23.40;98832.00;;;;347507;28;83353;-92
2022/08/16 00:06:50;;;;;;;;;;;23.30;95.00;23.40;98834.00;;;;344536;28;85706;-93
2022/08/16 00:07:02;;;;;;;;;;;23.20;95.00;23.30;98831.00;;;;343268;28;83961;-92
2022/08/16 00:07:13;;;;;;;;;;;23.30;95.00;23.30;98832.00;;;;344513;28;87509;-92
2022/08/16 00:07:26;;;;;;;;;;;23.30;94.90;23.30;98834.00;;;;346242;28;82474;-92
2022/08/16 00:07:40;;;;;;;;;;;23.20;94.80;23.30;98830.00;;;;345930;28;87545;-92
2022/08/16 00:07:52;;;;;;;;;;;23.30;94.80;23.40;98827.00;;;;347602;28;83266;-92
2022/08/16 00:08:07;;;;;;;;;;;23.30;94.80;23.30;98826.00;;;;346067;28;87118;-93
2022/08/16 00:08:39;;;;;;;;;;;23.30;95.00;23.30;98832.00;;;;347479;28;82661;-93
2022/08/16 00:08:56;;;;;;;;;;;23.30;95.20;23.20;98832.00;;;;347253;28;87401;-93
2022/08/16 00:09:09;;;;;;;;;;;23.20;95.20;23.20;98834.00;;;;346114;28;83448;-93
2022/08/16 00:09:21;;;;;;;;;;;23.20;95.10;23.20;98830.00;;;;347478;28;86128;-93
2022/08/16 00:09:33;;;;;;;;;;;23.20;95.00;23.20;98823.00;;;;346143;28;83267;-93
2022/08/16 00:09:46;;;;;;;;;;;23.20;95.10;23.20;98830.00;;;;347296;28;87257;-93
2022/08/16 00:09:58;;;;;;;;;;;23.20;95.20;23.20;98826.00;;;;347447;28;83244;-93
2022/08/16 00:10:11;;;;;;;;;;;23.20;95.00;23.20;98827.00;;;;346022;28;86397;-93
2022/08/16 00:10:32;;;;;;;;;;;23.20;95.20;23.30;98826.00;;;;346228;28;82412;-93
2022/08/16 00:10:43;;;;;;;;;;;23.20;95.20;23.30;98826.00;;;;346078;28;86444;-92
2022/08/16 00:10:55;;;;;;;;;;;23.20;95.10;23.20;98829.00;;;;346134;28;83262;-93
2022/08/16 00:11:09;;;;;;;;;;;23.20;95.10;23.20;98823.00;;;;346146;28;85958;-93
2022/08/16 00:11:27;;;;;;;;;;;23.20;95.20;23.30;98829.00;;;;347569;28;83442;-93
2022/08/16 00:11:39;;;;;;;;;;;23.20;95.20;23.20;98826.00;;;;351536;27;86534;-93
2022/08/16 00:11:51;;;;;;;;;;;23.20;95.50;23.20;98825.00;;;;346066;28;82599;-93
2022/08/16 00:12:06;;;;;;;;;;;23.20;95.40;23.20;98820.00;;;;347380;28;87385;-93
2022/08/16 00:12:18;;;;;;;;;;;23.20;95.20;23.20;98822.00;;;;348899;27;83441;-93
2022/08/16 00:12:31;;;;;;;;;;;23.20;95.40;23.20;98822.00;;;;348852;27;85874;-93
2022/08/16 00:12:43;;;;;;;;;;;23.20;95.50;23.20;98821.00;;;;347628;28;82566;-92
2022/08/16 00:12:55;;;;;;;;;;;23.20;95.30;23.20;98825.00;;;;350224;27;87746;-92
2022/08/16 00:13:07;;;;;;;;;;;23.20;95.50;23.20;98828.00;;;;347421;28;83397;-93
2022/08/16 00:13:19;;;;;;;;;;;23.20;95.30;23.20;98825.00;;;;347431;28;87391;-93
2022/08/16 00:13:32;;;;;;;;;;;23.20;95.40;23.20;98824.00;;;;347523;28;83374;-93
2022/08/16 00:13:53;;;;;;;;;;;23.20;95.50;23.20;98825.00;;;;344616;28;87733;-92
2022/08/16 00:14:08;;;;;;;;;;;23.20;95.40;23.20;98826.00;;;;348887;27;83296;-94
2022/08/16 00:14:23;;;;;;;;;;;23.20;95.20;23.20;98829.00;;;;345965;28;86169;-92
2022/08/16 00:14:39;;;;;;;;;;;23.10;95.30;23.20;98826.00;;;;347315;28;83469;-93
2022/08/16 00:14:52;;;;;;;;;;;23.20;95.40;23.20;98820.00;;;;347357;28;86242;-93
2022/08/16 00:15:16;;;;;;;;;;;23.10;95.40;23.10;98820.00;;;;344652;28;82701;-93
2022/08/16 00:15:34;;;;;;;;;;;23.20;95.60;23.20;98826.00;;;;344346;28;86379;-94
2022/08/16 00:16:03;;;;;;;;;;;23.20;95.40;23.10;98830.00;;;;347356;28;82357;-93
2022/08/16 00:16:34;;;;;;;;;;;23.20;95.60;23.10;98830.00;;;;346066;28;86382;-93
2022/08/16 00:17:06;;;;;;;;;;;23.20;95.60;23.10;98829.00;;;;346039;28;83496;-93
2022/08/16 00:17:30;;;;;;;;;;;23.20;95.60;23.10;98826.00;;;;347196;28;87786;-94
2022/08/16 00:18:03;;;;;;;;;;;23.10;95.50;23.20;98822.00;;;;348882;27;83488;-93
2022/08/16 00:18:20;;;;;;;;;;;23.10;95.40;23.20;98827.00;;;;347350;28;84248;-93
2022/08/16 00:18:40;;;;;;;;;;;23.10;95.20;23.10;98828.00;;;;348673;27;82590;-93
2022/08/16 00:18:51;;;;;;;;;;;23.10;95.40;23.20;98828.00;;;;348546;27;86324;-93
2022/08/16 00:19:04;;;;;;;;;;;23.10;95.40;23.20;98831.00;;;;345975;28;83507;-93
2022/08/16 00:19:21;;;;;;;;;;;23.10;95.50;23.10;98824.00;;;;347435;28;87074;-92
2022/08/16 00:19:33;;;;;;;;;;;23.10;95.60;23.10;98825.00;;;;347335;28;83456;-93
2022/08/16 00:19:53;;;;;;;;;;;23.10;95.80;23.20;98822.00;;;;344706;28;86012;-93
2022/08/16 00:20:07;;;;;;;;;;;23.10;95.50;23.20;98821.00;;;;344703;28;83292;-93
2022/08/16 00:20:23;;;;;;;;;;;23.10;95.70;23.20;98826.00;;;;347130;28;87738;-93
2022/08/16 00:20:36;;;;;;;;;;;23.10;95.70;23.10;98822.00;;;;347476;28;83352;-93
2022/08/16 00:20:51;;;;;;;;;;;23.10;95.70;23.20;98826.00;;;;347206;28;85536;-93
2022/08/16 00:21:03;;;;;;;;;;;23.10;95.70;23.10;98826.00;;;;347407;28;83540;-93
2022/08/16 00:21:15;;;;;;;;;;;23.10;95.70;23.20;98821.00;;;;345948;28;87782;-93
2022/08/16 00:21:27;;;;;;;;;;;23.10;95.50;23.20;98824.00;;;;347470;28;82502;-93
2022/08/16 00:21:41;;;;;;;;;;;23.10;95.80;23.20;98820.00;;;;347099;28;86666;-92
2022/08/16 00:21:53;;;;;;;;;;;23.10;95.50;23.10;98823.00;;;;347582;28;83392;-93
2022/08/16 00:22:11;;;;;;;;;;;23.10;95.50;23.10;98822.00;;;;348854;27;86691;-93
2022/08/16 00:22:26;;;;;;;;;;;23.10;95.50;23.10;98824.00;;;;347277;28;82630;-93
2022/08/16 00:22:39;;;;;;;;;;;23.10;95.50;23.10;98826.00;;;;345764;28;87409;-93
2022/08/16 00:22:53;;;;;;;;;;;23.10;95.60;23.10;98823.00;;;;348903;27;82437;-93
2022/08/16 00:23:05;;;;;;;;;;;23.10;95.40;23.20;98815.00;;;;345887;28;87065;-93
2022/08/16 00:23:21;;;;;;;;;;;23.10;95.40;23.10;98827.00;;;;347351;28;82518;-93
2022/08/16 00:23:45;;;;;;;;;;;23.10;95.60;23.20;98825.00;;;;344538;28;86627;-93
2022/08/16 00:23:58;;;;;;;;;;;23.10;95.70;23.20;98826.00;;;;345871;28;83486;-93
2022/08/16 00:24:15;;;;;;;;;;;23.10;95.50;23.20;98825.00;;;;345804;28;85038;-93
2022/08/16 00:24:43;;;;;;;;;;;23.10;95.50;23.20;98822.00;;;;348759;27;83473;-93
2022/08/16 00:25:00;;;;;;;;;;;23.10;95.60;23.10;98820.00;;;;345965;28;86379;-94
2022/08/16 00:25:14;;;;;;;;;;;23.10;95.90;23.30;98819.00;;;;347428;28;83423;-93
2022/08/16 00:25:26;;;;;;;;;;;23.10;95.70;23.30;98820.00;;;;347376;28;87392;-93
2022/08/16 00:25:58;;;;;;;;;;;23.10;95.70;23.40;98822.00;;;;347513;28;83444;-93
2022/08/16 00:26:29;;;;;;;;;;;23.20;95.70;23.30;98826.00;;;;344618;28;85915;-93
2022/08/16 00:26:55;;;;;;;;;;;23.20;95.90;23.30;98820.00;;;;346145;28;82531;-93
2022/08/16 00:27:07;;;;;;;;;;;23.20;95.60;23.20;98817.00;;;;344602;28;86357;-93
2022/08/16 00:27:19;;;;;;;;;;;23.20;95.60;23.20;98819.00;;;;346209;28;83136;-94
2022/08/16 00:27:30;;;;;;;;;;;23.20;95.60;23.30;98816.00;;;;346014;28;86454;-93
2022/08/16 00:27:43;;;;;;;;;;;23.20;95.40;23.40;98816.00;;;;346047;28;83393;-93
2022/08/16 00:27:58;;;;;;;;;;;23.20;95.40;23.40;98821.00;;;;346041;28;86775;-94
2022/08/16 00:28:11;;;;;;;;;;;23.20;95.50;23.30;98821.00;;;;344744;28;82414;-93
2022/08/16 00:28:23;;;;;;;;;;;23.20;95.40;23.40;98822.00;;;;344599;28;86078;-93
2022/08/16 00:28:39;;;;;;;;;;;23.20;95.40;23.30;98817.00;;;;347559;28;83414;-93
2022/08/16 00:28:50;;;;;;;;;;;23.20;95.50;23.40;98817.00;;;;344463;28;85559;-93
2022/08/16 00:29:05;;;;;;;;;;;23.20;95.40;23.30;98817.00;;;;348720;27;82490;-92
2022/08/16 00:29:17;;;;;;;;;;;23.20;95.40;23.40;98822.00;;;;347416;28;85850;-93
2022/08/16 00:29:30;;;;;;;;;;;23.20;95.40;23.30;98824.00;;;;346134;28;82441;-92
2022/08/16 00:29:41;;;;;;;;;;;23.20;95.40;23.10;98816.00;;;;345845;28;87058;-92
2022/08/16 00:29:56;;;;;;;;;;;23.20;95.60;23.20;98818.00;;;;347397;28;82541;-93
2022/08/16 00:30:20;;;;;;;;;;;23.20;95.60;23.40;98830.00;;;;347376;28;85078;-93
2022/08/16 00:30:39;;;;;;;;;;;23.20;95.50;23.20;98817.00;;;;346161;28;83447;-92
2022/08/16 00:30:52;;;;;;;;;;;23.20;95.50;23.20;98823.00;;;;344612;28;86451;-92
2022/08/16 00:31:04;;;;;;;;;;;23.20;95.60;23.10;98826.00;;;;347455;28;83493;-92
2022/08/16 00:31:16;;;;;;;;;;;23.20;95.60;23.10;98824.00;;;;347300;28;88093;-92
2022/08/16 00:31:35;;;;;;;;;;;23.20;95.50;23.20;98826.00;;;;344800;28;83295;-92
2022/08/16 00:32:07;;;;;;;;;;;23.20;95.50;23.30;98826.00;;;;345978;28;87781;-93
2022/08/16 00:32:21;;;;;;;;;;;23.20;95.40;23.30;98826.00;;;;346104;28;82523;-92
2022/08/16 00:32:33;;;;;;;;;;;23.20;95.30;23.30;98827.00;;;;345739;28;86622;-92
2022/08/16 00:32:46;;;;;;;;;;;23.20;95.30;23.20;98820.00;;;;348961;27;83253;-93
2022/08/16 00:33:00;;;;;;;;;;;23.20;95.40;23.30;98828.00;;;;347067;28;86595;-92
2022/08/16 00:33:12;;;;;;;;;;;23.20;95.40;23.20;98819.00;;;;346089;28;83454;-92
2022/08/16 00:33:24;;;;;;;;;;;23.20;95.50;23.10;98824.00;;;;347412;28;87744;-92
2022/08/16 00:33:36;;;;;;;;;;;23.20;95.60;23.20;98826.00;;;;347543;28;83350;-92
2022/08/16 00:33:48;;;;;;;;;;;23.20;95.50;23.30;98828.00;;;;347366;28;87301;-92
2022/08/16 00:34:01;;;;;;;;;;;23.10;95.40;23.30;98829.00;;;;347603;28;82522;-92
2022/08/16 00:34:15;;;;;;;;;;;23.20;95.50;23.30;98829.00;;;;347418;28;87387;-92
2022/08/16 00:34:29;;;;;;;;;;;23.10;95.40;23.30;98826.00;;;;347497;28;83412;-92
2022/08/16 00:34:55;;;;;;;;;;;23.20;95.40;23.10;98826.00;;;;346008;28;87477;-92
2022/08/16 00:35:13;;;;;;;;;;;23.20;95.50;23.30;98826.00;;;;347465;28;82533;-92
2022/08/16 00:35:32;;;;;;;;;;;23.10;95.50;23.30;98831.00;;;;344565;28;87859;-92
2022/08/16 00:35:45;;;;;;;;;;;23.20;95.50;23.40;98833.00;;;;345978;28;83465;-92
2022/08/16 00:36:00;;;;;;;;;;;23.20;95.40;23.30;98831.00;;;;346124;28;86081;-92
2022/08/16 00:36:12;;;;;;;;;;;23.20;95.30;23.20;98826.00;;;;346215;28;83258;-92
2022/08/16 00:36:24;;;;;;;;;;;23.20;95.40;23.30;98828.00;;;;348749;27;87739;-92
2022/08/16 00:36:36;;;;;;;;;;;23.20;95.40;23.20;98826.00;;;;344755;28;83288;-92
2022/08/16 00:36:57;;;;;;;;;;;23.20;95.40;23.30;98831.00;;;;345799;28;85341;-92
2022/08/16 00:37:14;;;;;;;;;;;23.20;95.40;23.30;98830.00;;;;347451;28;83457;-92
2022/08/16 00:37:29;;;;;;;;;;;23.20;95.40;23.40;98826.00;;;;343142;28;86779;-92
2022/08/16 00:38:04;;;;;;;;;;;23.20;95.40;23.30;98830.00;;;;344709;28;82442;-92
2022/08/16 00:38:36;;;;;;;;;;;23.20;95.70;23.20;98827.00;;;;344677;28;86606;-92
2022/08/16 00:38:52;;;;;;;;;;;23.20;95.60;23.20;98822.00;;;;344742;28;83529;-92
2022/08/16 00:39:06;;;;;;;;;;;23.20;95.50;23.10;98825.00;;;;347401;27;87378;-92
2022/08/16 00:39:26;;;;;;;;;;;23.20;95.50;23.10;98824.00;;;;348880;27;83422;-92
2022/08/16 00:39:41;;;;;;;;;;;23.20;95.40;23.00;98818.00;;;;347085;28;86095;-92
2022/08/16 00:39:53;;;;;;;;;;;23.20;95.60;23.00;98819.00;;;;347482;28;82512;-93
2022/08/16 00:40:09;;;;;;;;;;;23.10;95.70;23.00;98820.00;;;;347351;28;87637;-92
2022/08/16 00:40:43;;;;;;;;;;;23.10;95.70;23.10;98827.00;;;;347434;28;83497;-92
2022/08/16 00:41:04;;;;;;;;;;;23.10;95.40;23.10;98826.00;;;;347054;28;86445;-92
2022/08/16 00:41:16;;;;;;;;;;;23.10;95.50;23.20;98825.00;;;;344626;28;83391;-92
2022/08/16 00:41:29;;;;;;;;;;;23.10;95.50;23.20;98819.00;;;;346090;28;86495;-92
2022/08/16 00:41:48;;;;;;;;;;;23.10;95.60;23.20;98827.00;;;;347489;28;83515;-92
2022/08/16 00:42:00;;;;;;;;;;;23.10;95.60;23.30;98825.00;;;;346057;28;85015;-92
2022/08/16 00:42:13;;;;;;;;;;;23.10;95.60;23.30;98827.00;;;;347557;28;83425;-92
2022/08/16 00:42:42;;;;;;;;;;;23.10;95.50;23.30;98824.00;;;;345960;28;86288;-92
2022/08/16 00:42:56;;;;;;;;;;;23.10;95.60;23.10;98821.00;;;;345858;28;83578;-92
2022/08/16 00:43:17;;;;;;;;;;;23.10;95.80;23.10;98824.00;;;;347336;28;85743;-91
2022/08/16 00:43:34;;;;;;;;;;;23.10;95.80;23.00;98824.00;;;;347515;28;82579;-92
2022/08/16 00:43:54;;;;;;;;;;;23.10;95.70;23.00;98825.00;;;;347386;28;87144;-93
2022/08/16 00:44:09;;;;;;;;;;;23.10;95.80;22.90;98827.00;;;;346196;28;83244;-92
2022/08/16 00:44:21;;;;;;;;;;;23.10;95.90;23.00;98825.00;;;;347318;28;87279;-93
2022/08/16 00:44:45;;;;;;;;;;;23.10;95.90;23.00;98826.00;;;;347425;28;83463;-93
2022/08/16 00:45:05;;;;;;;;;;;23.10;95.90;23.00;98824.00;;;;344490;28;87518;-93
2022/08/16 00:45:26;;;;;;;;;;;23.00;95.80;22.90;98824.00;;;;347475;28;83256;-92
2022/08/16 00:45:56;;;;;;;;;;;23.00;95.70;22.90;98824.00;;;;343257;28;86072;-92
2022/08/16 00:46:28;;;;;;;;;;;23.00;95.80;23.00;98825.00;;;;346145;28;82536;-92
2022/08/16 00:46:54;;;;;;;;;;;23.00;95.70;22.90;98825.00;;;;343233;28;86668;-92
2022/08/16 00:47:17;;;;;;;;;;;23.00;96.00;22.80;98815.00;;;;347566;28;83385;-93
2022/08/16 00:47:32;;;;;;;;;;;23.00;96.10;22.90;98824.00;;;;350149;27;87325;-92
2022/08/16 00:47:44;;;;;;;;;;;23.00;96.10;22.90;98822.00;;;;347450;28;83296;-93
2022/08/16 00:48:01;;;;;;;;;;;23.00;96.10;23.00;98822.00;;;;346038;28;85036;-93
2022/08/16 00:48:33;;;;;;;;;;;23.00;95.90;22.90;98819.00;;;;347439;28;83420;-92
2022/08/16 00:48:56;;;;;;;;;;;23.00;96.00;22.90;98818.00;;;;350149;27;86926;-92
2022/08/16 00:49:09;;;;;;;;;;;22.90;95.90;22.90;98819.00;;;;347499;28;83485;-93
2022/08/16 00:49:30;;;;;;;;;;;22.90;95.90;23.00;98822.00;;;;344602;28;87286;-93
2022/08/16 00:49:55;;;;;;;;;;;22.90;95.90;22.90;98826.00;;;;347444;28;83488;-93
2022/08/16 00:50:07;;;;;;;;;;;22.90;96.00;23.00;98819.00;;;;348755;27;87430;-93
2022/08/16 00:50:25;;;;;;;;;;;22.90;95.90;23.10;98810.00;;;;343382;28;82549;-93
2022/08/16 00:50:47;;;;;;;;;;;22.90;95.90;23.00;98822.00;;;;344530;28;86956;-92
2022/08/16 00:51:06;;;;;;;;;;;22.90;96.00;23.00;98826.00;;;;344665;28;83480;-92
2022/08/16 00:51:20;;;;;;;;;;;22.90;95.80;23.00;98816.00;;;;345972;28;86860;-92
2022/08/16 00:51:31;;;;;;;;;;;22.90;95.90;23.00;98823.00;;;;347270;28;83420;-92
2022/08/16 00:51:44;;;;;;;;;;;22.90;96.00;22.90;98822.00;;;;345915;28;87579;-92
2022/08/16 00:51:56;;;;;;;;;;;22.90;96.20;22.80;98820.00;;;;344780;28;82426;-93
2022/08/16 00:52:08;;;;;;;;;;;22.90;96.20;22.70;98821.00;;;;344547;28;87360;-93
2022/08/16 00:52:40;;;;;;;;;;;22.90;96.30;23.00;98826.00;;;;344712;28;83466;-93
2022/08/16 00:53:04;;;;;;;;;;;22.90;96.10;22.90;98828.00;;;;345953;28;86367;-92
2022/08/16 00:53:17;;;;;;;;;;;22.90;96.20;22.90;98829.00;;;;347501;28;83341;-92
2022/08/16 00:53:28;;;;;;;;;;;22.90;96.20;23.00;98826.00;;;;344473;28;87090;-93
2022/08/16 00:53:41;;;;;;;;;;;22.90;96.10;23.00;98825.00;;;;345841;28;82581;-92
2022/08/16 00:53:53;;;;;;;;;;;22.90;96.10;23.00;98827.00;;;;345952;28;86285;-93
2022/08/16 00:54:05;;;;;;;;;;;22.90;96.20;23.10;98833.00;;;;347448;28;83316;-92
2022/08/16 00:54:17;;;;;;;;;;;22.90;96.30;23.10;98830.00;;;;345891;28;87787;-92
2022/08/16 00:54:33;;;;;;;;;;;22.90;96.20;23.10;98832.00;;;;347225;28;82654;-93
2022/08/16 00:54:44;;;;;;;;;;;22.90;96.10;23.20;98821.00;;;;347337;28;86529;-92
2022/08/16 00:54:59;;;;;;;;;;;22.90;96.30;23.10;98830.00;;;;346109;28;83475;-93
2022/08/16 00:55:11;;;;;;;;;;;22.90;96.30;23.10;98827.00;;;;347426;28;86010;-92
2022/08/16 00:55:23;;;;;;;;;;;22.90;96.20;23.10;98827.00;;;;348822;27;83398;-93
2022/08/16 00:55:36;;;;;;;;;;;22.90;96.20;23.10;98829.00;;;;347387;28;86640;-93
2022/08/16 00:55:50;;;;;;;;;;;22.90;96.10;23.00;98828.00;;;;346141;28;82410;-93
2022/08/16 00:56:05;;;;;;;;;;;22.90;96.20;23.00;98829.00;;;;347410;28;86610;-93
2022/08/16 00:56:22;;;;;;;;;;;23.00;96.20;22.90;98827.00;;;;346062;28;83407;-93
2022/08/16 00:56:54;;;;;;;;;;;22.90;96.20;23.00;98840.00;;;;345987;28;86564;-93
2022/08/16 00:57:10;;;;;;;;;;;22.90;96.20;22.90;98831.00;;;;347469;28;83441;-93
2022/08/16 00:57:22;;;;;;;;;;;22.90;96.40;22.90;98830.00;;;;347195;28;86457;-93
2022/08/16 00:57:36;;;;;;;;;;;22.90;96.30;22.90;98829.00;;;;350229;27;83432;-93
2022/08/16 00:58:08;;;;;;;;;;;22.90;96.30;22.90;98827.00;;;;345992;28;87446;-93
2022/08/16 00:58:28;;;;;;;;;;;22.90;96.10;22.90;98831.00;;;;346098;28;83331;-93
2022/08/16 00:58:46;;;;;;;;;;;22.90;96.20;22.90;98826.00;;;;348562;27;86498;-93
2022/08/16 00:58:58;;;;;;;;;;;22.90;96.40;22.80;98823.00;;;;344672;28;82488;-92
2022/08/16 00:59:12;;;;;;;;;;;22.90;96.40;22.80;98825.00;;;;344652;28;86723;-93
2022/08/16 00:59:28;;;;;;;;;;;22.90;96.40;22.80;98827.00;;;;348903;27;83359;-93
2022/08/16 00:59:43;;;;;;;;;;;22.80;96.50;22.80;98828.00;;;;345995;28;86805;-93
2022/08/16 01:00:08;;;;;;;;;;;22.80;96.50;22.70;98823.00;;;;344805;28;82450;-93
2022/08/16 01:00:23;;;;;;;;;;;22.80;96.60;22.80;98826.00;;;;345892;28;87146;-93
2022/08/16 01:00:37;;;;;;;;;;;22.80;96.70;22.70;98824.00;;;;344722;28;83252;-93
2022/08/16 01:00:49;;;;;;;;;;;22.80;96.80;22.80;98825.00;;;;344673;28;86530;-93
2022/08/16 01:01:05;;;;;;;;;;;22.80;96.70;22.80;98823.00;;;;347158;28;83501;-93
2022/08/16 01:01:19;;;;;;;;;;;22.80;96.40;22.80;98820.00;;;;344591;28;86501;-93
2022/08/16 01:01:31;;;;;;;;;;;22.80;96.50;22.80;98823.00;;;;346053;28;82469;-93
2022/08/16 01:01:46;;;;;;;;;;;22.80;96.60;22.80;98820.00;;;;347148;28;85327;-93
2022/08/16 01:01:58;;;;;;;;;;;22.80;96.60;22.90;98824.00;;;;347457;28;82404;-93
2022/08/16 01:02:30;;;;;;;;;;;22.80;96.50;22.90;98822.00;;;;344581;28;87436;-92
2022/08/16 01:02:43;;;;;;;;;;;22.80;96.50;22.90;98822.00;;;;347169;28;83557;-92
2022/08/16 01:03:02;;;;;;;;;;;22.80;96.50;23.00;98824.00;;;;345880;28;86075;-93
2022/08/16 01:03:15;;;;;;;;;;;22.80;96.50;22.90;98824.00;;;;347421;28;82648;-93
2022/08/16 01:03:42;;;;;;;;;;;22.80;96.60;22.90;98824.00;;;;347327;28;87053;-92
2022/08/16 01:04:00;;;;;;;;;;;22.80;96.60;22.70;98820.00;;;;347469;28;82531;-93
2022/08/16 01:04:19;;;;;;;;;;;22.80;96.70;22.80;98819.00;;;;345975;28;87558;-93
2022/08/16 01:04:41;;;;;;;;;;;22.80;96.60;22.80;98823.00;;;;346031;28;84118;-93
2022/08/16 01:05:13;;;;;;;;;;;22.80;96.60;22.60;98821.00;;;;348755;27;86270;-93
2022/08/16 01:05:24;;;;;;;;;;;22.80;96.70;22.60;98826.00;;;;346119;28;83175;-92
2022/08/16 01:05:37;;;;;;;;;;;22.80;96.90;22.60;98823.00;;;;345889;28;87757;-92
2022/08/16 01:05:49;;;;;;;;;;;22.80;96.90;22.60;98823.00;;;;344586;28;82582;-93
2022/08/16 01:06:02;;;;;;;;;;;22.80;96.80;22.60;98817.00;;;;345992;28;86363;-93
2022/08/16 01:06:34;;;;;;;;;;;22.80;96.80;22.70;98829.00;;;;347468;28;82461;-93
2022/08/16 01:07:01;;;;;;;;;;;22.80;96.70;22.60;98826.00;;;;348735;27;86325;-93
2022/08/16 01:07:13;;;;;;;;;;;22.70;96.70;22.60;98821.00;;;;347434;28;83406;-92
2022/08/16 01:07:28;;;;;;;;;;;22.70;96.90;22.60;98821.00;;;;348816;27;86716;-92
2022/08/16 01:08:01;;;;;;;;;;;22.70;96.90;22.50;98825.00;;;;347410;28;83446;-93
2022/08/16 01:08:34;;;;;;;;;;;22.70;97.00;22.60;98826.00;;;;345941;28;87851;-92
2022/08/16 01:08:49;;;;;;;;;;;22.70;96.90;22.70;98829.00;;;;347425;28;83430;-93
2022/08/16 01:09:04;;;;;;;;;;;22.70;96.90;22.60;98821.00;;;;348679;27;86082;-92
2022/08/16 01:09:19;;;;;;;;;;;22.70;96.90;22.60;98825.00;;;;346178;28;82385;-92
2022/08/16 01:09:35;;;;;;;;;;;22.70;96.90;22.50;98823.00;;;;347508;28;85883;-93
2022/08/16 01:09:48;;;;;;;;;;;22.70;97.00;22.60;98829.00;;;;348828;27;82641;-92
2022/08/16 01:10:00;;;;;;;;;;;22.70;97.10;22.60;98826.00;;;;346057;28;85881;-92
2022/08/16 01:10:12;;;;;;;;;;;22.70;97.10;22.60;98823.00;;;;346119;28;82407;-92
2022/08/16 01:10:28;;;;;;;;;;;22.70;97.10;22.60;98822.00;;;;347388;28;87420;-93
2022/08/16 01:10:44;;;;;;;;;;;22.70;97.40;22.60;98817.00;;;;347437;28;83451;-92
2022/08/16 01:10:56;;;;;;;;;;;22.60;97.20;22.60;98819.00;;;;345919;28;87933;-93
2022/08/16 01:11:10;;;;;;;;;;;22.60;97.20;22.60;98821.00;;;;346079;28;82564;-93
2022/08/16 01:11:24;;;;;;;;;;;22.70;97.30;22.50;98826.00;;;;344561;28;86656;-93
2022/08/16 01:11:37;;;;;;;;;;;22.60;97.60;22.50;98818.00;;;;347132;28;83557;-92
2022/08/16 01:12:07;;;;;;;;;;;22.60;97.50;22.60;98821.00;;;;350153;27;87286;-93
2022/08/16 01:12:21;;;;;;;;;;;22.60;97.10;22.60;98826.00;;;;347394;28;83380;-92
2022/08/16 01:12:37;;;;;;;;;;;22.60;97.30;22.50;98820.00;;;;346009;28;87063;-92
2022/08/16 01:12:49;;;;;;;;;;;22.60;97.40;22.50;98821.00;;;;346085;28;83372;-93
2022/08/16 01:13:08;;;;;;;;;;;22.60;97.40;22.60;98817.00;;;;345939;28;86161;-93
2022/08/16 01:13:27;;;;;;;;;;;22.60;97.30;22.50;98819.00;;;;346130;28;82395;-93
2022/08/16 01:13:39;;;;;;;;;;;22.60;97.70;22.50;98818.00;;;;344604;28;86691;-92
2022/08/16 01:13:53;;;;;;;;;;;22.60;97.70;22.60;98817.00;;;;346033;28;82556;-93
2022/08/16 01:14:21;;;;;;;;;;;22.50;97.50;22.40;98824.00;;;;347321;28;87567;-93
2022/08/16 01:14:44;;;;;;;;;;;22.50;97.50;22.60;98821.00;;;;347229;28;82454;-93
2022/08/16 01:14:57;;;;;;;;;;;22.60;97.50;22.60;98816.00;;;;345928;28;87451;-93
2022/08/16 01:15:09;;;;;;;;;;;22.60;97.40;22.60;98814.00;;;;346050;28;82415;-93
2022/08/16 01:15:21;;;;;;;;;;;22.60;97.40;22.60;98813.00;;;;345848;28;86585;-92
2022/08/16 01:15:35;;;;;;;;;;;22.50;97.20;22.60;98814.00;;;;348901;27;83313;-93
2022/08/16 01:15:51;;;;;;;;;;;22.50;97.20;22.60;98816.00;;;;345935;28;86511;-93
2022/08/16 01:16:05;;;;;;;;;;;22.50;97.20;22.60;98818.00;;;;348823;27;83368;-93
2022/08/16 01:16:23;;;;;;;;;;;22.50;97.20;22.60;98815.00;;;;348706;27;87917;-93
2022/08/16 01:16:39;;;;;;;;;;;22.50;97.50;22.60;98808.00;;;;348898;27;83235;-93
2022/08/16 01:16:52;;;;;;;;;;;22.50;97.40;22.60;98814.00;;;;347423;28;85935;-92
2022/08/16 01:17:04;;;;;;;;;;;22.50;97.70;22.50;98818.00;;;;346073;28;83229;-93
2022/08/16 01:17:19;;;;;;;;;;;22.50;97.60;22.50;98810.00;;;;348846;27;85936;-93
2022/08/16 01:17:34;;;;;;;;;;;22.50;97.70;22.50;98813.00;;;;346057;28;83361;-93
2022/08/16 01:17:47;;;;;;;;;;;22.50;97.50;22.50;98807.00;;;;344531;28;87319;-92
2022/08/16 01:18:07;;;;;;;;;;;22.50;97.40;22.50;98813.00;;;;348888;27;82531;-93
2022/08/16 01:18:45;;;;;;;;;;;22.60;97.60;22.50;98811.00;;;;344434;28;87335;-93
2022/08/16 01:19:21;;;;;;;;;;;22.50;98.10;22.50;98817.00;;;;347427;28;83341;-92
2022/08/16 01:19:45;;;;;;;;;;;22.50;98.00;22.60;98815.00;;;;347323;28;87268;-93
2022/08/16 01:19:58;;;;;;;;;;;22.50;97.70;22.50;98814.00;;;;346037;28;83375;-93
2022/08/16 01:20:11;;;;;;;;;;;22.50;97.80;22.50;98817.00;;;;345975;28;86049;-93
2022/08/16 01:20:39;;;;;;;;;;;22.50;97.80;22.50;98815.00;;;;347508;28;83458;-92
2022/08/16 01:21:13;;;;;;;;;;;22.50;98.00;22.50;98810.00;;;;347329;28;87105;-93
2022/08/16 01:21:30;;;;;;;;;;;22.40;97.90;22.50;98818.00;;;;346145;28;83369;-92
2022/08/16 01:21:57;;;;;;;;;;;22.50;97.70;22.50;98812.00;;;;344387;28;87300;-92
2022/08/16 01:22:40;;;;;;;;;;;22.50;97.70;22.30;98813.00;;;;346054;28;83421;-92
2022/08/16 01:23:15;;;;;;;;;;;22.40;98.00;22.30;98817.00;;;;345689;28;86812;-93
2022/08/16 01:23:47;;;;;;;;;;;22.40;98.20;22.40;98816.00;;;;347314;28;82557;-92
2022/08/16 01:24:38;;;;;;;;;;;22.40;98.20;22.40;98812.00;;;;345730;28;85369;-92